Time;durP1;ratioP1;P1;durP2;ratioP2;P2;SDS_P1;SDS_P2;PMS_P1;PMS_P2;Temp;Humidity;BMP_temperature;BMP_pressure;BME280_temperature;BME280_humidity;BME280_pressure;Samples;Min_cycle;Max_cycle;Signal;HPM_P1;HPM_P2
2023/03/17 00:01:08;;;;;;;27.90;9.13;;;;;;;2.23;100.00;101438.27;5138505;56;1140880;-70
2023/03/17 00:06:24;;;;;;;39.67;14.00;;;;;;;2.20;100.00;101449.64;5127032;56;1138843;-69
2023/03/17 00:11:30;;;;;;;34.23;13.53;;;;;;;2.17;100.00;101431.91;5126154;56;1141009;-66
2023/03/17 00:16:41;;;;;;;43.33;15.03;;;;;;;2.15;100.00;101431.94;5146668;56;1141240;-69
2023/03/17 00:21:46;;;;;;;36.33;14.03;;;;;;;2.11;100.00;101422.52;5126689;56;1141056;-69
2023/03/17 00:26:52;;;;;;;31.42;12.73;;;;;;;2.11;100.00;101423.82;5127034;56;1141359;-68
2023/03/17 00:32:01;;;;;;;31.07;11.70;;;;;;;2.09;100.00;101419.09;5146815;56;1140874;-66
2023/03/17 00:37:10;;;;;;;44.80;15.40;;;;;;;2.13;99.35;101417.25;5126973;56;1141054;-66
2023/03/17 00:42:16;;;;;;;43.00;16.23;;;;;;;2.14;98.80;101411.14;5101033;56;1138925;-75
2023/03/17 00:47:22;;;;;;;32.90;12.97;;;;;;;2.18;99.44;101412.30;5111036;55;1138987;-69
2023/03/17 00:52:29;;;;;;;30.50;12.27;;;;;;;2.22;98.71;101410.01;5126928;56;1138766;-73
2023/03/17 00:57:36;;;;;;;29.65;11.53;;;;;;;2.25;98.74;101407.31;5114382;56;1139166;-70
2023/03/17 01:02:42;;;;;;;24.53;9.87;;;;;;;2.23;98.01;101405.64;5040087;57;1139001;-70
2023/03/17 01:07:57;;;;;;;23.33;9.77;;;;;;;2.19;98.27;101402.26;5014094;57;1136725;-69
2023/03/17 01:12:59;;;;;;;33.93;9.67;;;;;;;2.15;98.74;101384.12;5026971;57;1142796;-75
2023/03/17 01:18:05;;;;;;;29.48;10.32;;;;;;;2.11;99.03;101385.53;5047478;57;1136790;-70
2023/03/17 01:23:12;;;;;;;23.43;9.70;;;;;;;2.05;99.58;101366.13;5027867;57;1138812;-73
2023/03/17 01:28:20;;;;;;;22.10;8.60;;;;;;;1.99;100.00;101356.31;5011315;57;1136754;-74
2023/03/17 01:33:26;;;;;;;16.17;7.80;;;;;;;1.96;100.00;101360.34;5004880;57;1138932;-73
2023/03/17 01:38:32;;;;;;;17.33;6.80;;;;;;;1.92;100.00;101349.58;5027777;56;1139101;-70
2023/03/17 01:43:38;;;;;;;24.60;10.03;;;;;;;1.89;100.00;101335.31;4949858;57;1139072;-69
2023/03/17 01:49:08;;;;;;;79.00;23.53;;;;;;;1.88;100.00;101308.37;5010256;57;1140917;-72
2023/03/17 01:54:24;;;;;;;20.65;7.85;;;;;;;1.89;100.00;101322.27;5027268;57;1141240;-72
2023/03/17 01:59:34;;;;;;;30.95;8.68;;;;;;;1.84;100.00;101325.45;5027567;57;1138889;-68
2023/03/17 02:04:42;;;;;;;24.50;9.00;;;;;;;1.82;100.00;101316.39;5051678;56;1138846;-68
2023/03/17 02:09:48;;;;;;;20.75;8.65;;;;;;;1.78;100.00;101314.77;5033601;56;1138730;-71
2023/03/17 02:14:57;;;;;;;24.68;9.62;;;;;;;1.76;100.00;101321.77;5021445;56;1139006;-71
2023/03/17 02:20:19;;;;;;;27.33;10.97;;;;;;;1.76;100.00;101329.15;5049224;56;1138821;-71
2023/03/17 02:25:29;;;;;;;28.90;10.13;;;;;;;1.76;100.00;101311.34;5000742;56;1140923;-69
2023/03/17 02:30:36;;;;;;;25.23;8.67;;;;;;;1.75;100.00;101305.72;4947021;57;1140886;-75
2023/03/17 02:35:43;;;;;;;19.73;8.10;;;;;;;1.72;100.00;101314.92;5047624;56;1138759;-68
2023/03/17 02:40:48;;;;;;;24.10;10.32;;;;;;;1.70;100.00;101311.50;5031536;56;1138903;-73
2023/03/17 02:45:54;;;;;;;31.03;12.60;;;;;;;1.68;100.00;101314.15;4951538;57;1140996;-68
2023/03/17 02:51:00;;;;;;;29.70;10.83;;;;;;;1.66;100.00;101311.20;5043161;56;1140974;-68
2023/03/17 02:56:07;;;;;;;30.88;13.25;;;;;;;1.63;100.00;101305.63;5033220;56;1141103;-70
2023/03/17 03:01:15;;;;;;;28.67;13.37;;;;;;;1.64;100.00;101312.55;5033006;56;1140920;-68
2023/03/17 03:06:22;;;;;;;37.03;14.73;;;;;;;1.63;100.00;101307.38;5052722;56;1141050;-71
2023/03/17 03:11:28;;;;;;;35.40;15.80;;;;;;;1.57;100.00;101301.02;5032871;56;1140871;-72
2023/03/17 03:16:34;;;;;;;31.90;14.80;;;;;;;1.52;100.00;101306.83;5032821;56;1140906;-74
2023/03/17 03:21:41;;;;;;;36.97;15.13;;;;;;;1.49;100.00;101322.55;5019746;56;1140942;-68
2023/03/17 03:26:47;;;;;;;41.20;18.43;;;;;;;1.44;100.00;101293.14;4945899;57;1205181;-72
2023/03/17 03:31:53;;;;;;;32.90;15.00;;;;;;;1.39;100.00;101291.50;4961742;57;1140959;-69
2023/03/17 03:36:59;;;;;;;44.35;15.35;;;;;;;1.35;100.00;101279.92;5033431;56;1141059;-72
2023/03/17 03:42:05;;;;;;;34.70;15.97;;;;;;;1.31;100.00;101271.33;5030495;56;1140993;-72
2023/03/17 03:47:11;;;;;;;32.80;15.20;;;;;;;1.27;100.00;101262.33;4970582;56;1141057;-70
2023/03/17 03:52:18;;;;;;;35.30;16.63;;;;;;;1.25;100.00;101262.81;5032943;56;1140850;-68
2023/03/17 03:57:24;;;;;;;39.67;16.77;;;;;;;1.23;100.00;101261.55;5052594;56;1141048;-73
2023/03/17 04:02:30;;;;;;;47.23;17.37;;;;;;;1.24;100.00;101268.47;5032981;56;1141129;-70
2023/03/17 04:07:37;;;;;;;48.47;19.53;;;;;;;1.24;100.00;101252.84;5070381;56;1141138;-72
2023/03/17 04:12:45;;;;;;;39.20;18.20;;;;;;;1.24;100.00;101246.33;5146846;56;1140813;-75
2023/03/17 04:17:53;;;;;;;39.77;18.53;;;;;;;1.26;100.00;101260.17;5093843;56;1140796;-68
2023/03/17 04:22:59;;;;;;;47.20;18.80;;;;;;;1.31;100.00;101260.05;5038253;57;1141067;-70
2023/03/17 04:28:05;;;;;;;46.90;18.42;;;;;;;1.34;100.00;101263.44;5117787;56;1141125;-72
2023/03/17 04:33:11;;;;;;;45.55;19.27;;;;;;;1.35;100.00;101269.05;5090130;56;1141150;-67
2023/03/17 04:38:19;;;;;;;42.23;19.03;;;;;;;1.34;100.00;101274.30;5041914;56;1141012;-73
2023/03/17 04:43:26;;;;;;;44.90;18.90;;;;;;;1.36;100.00;101266.86;5071144;55;1141021;-68
2023/03/17 04:48:31;;;;;;;43.77;18.37;;;;;;;1.39;100.00;101277.17;5084612;56;1140956;-72
2023/03/17 04:53:37;;;;;;;39.80;18.23;;;;;;;1.39;100.00;101277.17;5126399;56;1141155;-72
2023/03/17 04:58:43;;;;;;;40.45;17.70;;;;;;;1.40;100.00;101278.02;5146275;56;1141043;-71
2023/03/17 05:03:50;;;;;;;43.30;19.07;;;;;;;1.37;100.00;101267.71;5126658;56;1141101;-67
2023/03/17 05:08:57;;;;;;;51.28;20.57;;;;;;;1.39;100.00;101278.92;5118011;56;1141076;-69
2023/03/17 05:14:03;;;;;;;46.07;18.93;;;;;;;1.39;100.00;101271.10;5084772;56;1141103;-70
2023/03/17 05:19:09;;;;;;;44.80;19.07;;;;;;;1.39;100.00;101256.31;5007891;57;1140955;-74
2023/03/17 05:24:15;;;;;;;55.67;21.03;;;;;;;1.37;100.00;101252.08;5008106;57;1141311;-67
2023/03/17 05:29:21;;;;;;;50.93;21.17;;;;;;;1.36;100.00;101257.73;5027581;57;1141027;-66
2023/03/17 05:34:27;;;;;;;54.50;22.83;;;;;;;1.35;100.00;101243.44;5068094;56;1141033;-69
2023/03/17 05:39:33;;;;;;;48.60;22.17;;;;;;;1.32;100.00;101238.31;5055242;56;1140951;-70
2023/03/17 05:44:39;;;;;;;42.83;17.73;;;;;;;1.31;100.00;101245.27;5014942;57;1140827;-70
2023/03/17 05:49:45;;;;;;;47.10;19.30;;;;;;;1.32;100.00;101244.38;4947241;57;1141081;-69
2023/03/17 05:54:52;;;;;;;55.43;21.43;;;;;;;1.35;100.00;101249.51;4927416;57;1141056;-68
2023/03/17 05:59:58;;;;;;;52.80;20.37;;;;;;;1.40;100.00;101252.81;4939968;57;1141402;-71
2023/03/17 06:05:07;;;;;;;50.80;20.63;;;;;;;1.44;100.00;101244.47;4984655;57;1150561;-71
2023/03/17 06:10:14;;;;;;;41.80;17.17;;;;;;;1.47;100.00;101252.66;4881710;58;1141410;-68
2023/03/17 06:15:22;;;;;;;42.73;18.63;;;;;;;1.52;100.00;101246.43;4943831;58;1141298;-69
2023/03/17 06:20:27;;;;;;;37.80;18.82;;;;;;;1.54;100.00;101251.13;4965226;57;1141057;-68
2023/03/17 06:25:35;;;;;;;44.43;21.23;;;;;;;1.60;100.00;101240.97;4946387;57;1140951;-68
2023/03/17 06:30:41;;;;;;;48.70;22.00;;;;;;;1.74;100.00;101229.69;4866880;58;1141113;-66
2023/03/17 06:35:47;;;;;;;51.93;21.23;;;;;;;1.90;100.00;101230.08;4933601;57;1141081;-70
2023/03/17 06:40:53;;;;;;;47.00;20.47;;;;;;;2.02;100.00;101230.55;4865687;58;1140983;-69
2023/03/17 06:46:00;;;;;;;51.50;20.00;;;;;;;2.16;100.00;101241.86;4994253;57;1141077;-71
2023/03/17 06:51:06;;;;;;;49.95;18.20;;;;;;;2.19;100.00;101241.77;4965928;58;1150749;-71
2023/03/17 06:56:12;;;;;;;44.20;17.42;;;;;;;2.18;100.00;101247.03;4946492;58;1140937;-73
2023/03/17 07:01:19;;;;;;;53.43;24.97;;;;;;;2.28;100.00;101254.55;4914267;58;1140997;-72
2023/03/17 07:06:24;;;;;;;51.90;24.63;;;;;;;2.59;100.00;101267.92;4911526;57;1141065;-68
2023/03/17 07:11:31;;;;;;;37.47;16.93;;;;;;;2.85;100.00;101276.19;4998949;57;1140955;-72
2023/03/17 07:16:39;;;;;;;39.53;16.87;;;;;;;3.11;100.00;101270.91;5010706;57;1140966;-69
2023/03/17 07:21:44;;;;;;;46.87;20.50;;;;;;;3.28;100.00;101278.17;5030582;57;1140901;-69
2023/03/17 07:26:51;;;;;;;47.53;15.90;;;;;;;3.49;100.00;101290.03;5010766;57;1140972;-75
2023/03/17 07:31:57;;;;;;;42.90;17.03;;;;;;;3.82;100.00;101306.69;5016472;57;1141089;-65
2023/03/17 07:37:05;;;;;;;32.63;13.53;;;;;;;4.14;99.43;101295.86;5126971;56;1141050;-69
2023/03/17 07:42:14;;;;;;;40.35;15.63;;;;;;;4.33;95.90;101268.96;5102658;56;1138948;-72
2023/03/17 07:47:20;;;;;;;43.60;14.00;;;;;;;4.55;94.25;101238.38;5042430;57;1138943;-69
2023/03/17 07:52:26;;;;;;;25.03;12.20;;;;;;;4.52;90.57;101216.23;5062424;57;1138797;-73
2023/03/17 07:57:32;;;;;;;37.17;14.43;;;;;;;4.40;87.42;101208.89;5042065;57;1138740;-71
2023/03/17 08:02:38;;;;;;;31.87;13.53;;;;;;;4.39;90.34;101223.75;5042071;56;1138810;-68
2023/03/17 08:07:44;;;;;;;34.97;14.63;;;;;;;4.52;88.63;101215.78;5062153;56;1139056;-68
2023/03/17 08:12:52;;;;;;;53.80;23.40;;;;;;;4.64;85.56;101205.70;5042375;57;1138806;-71
2023/03/17 08:17:57;;;;;;;41.05;20.55;;;;;;;4.59;87.80;101208.50;5029095;56;1139025;-71
2023/03/17 08:23:05;;;;;;;43.53;19.47;;;;;;;4.71;87.94;101218.95;5052619;56;1138883;-72
2023/03/17 08:28:11;;;;;;;32.90;13.53;;;;;;;4.90;86.48;101201.50;5032603;56;1138793;-72
2023/03/17 08:33:17;;;;;;;28.73;12.47;;;;;;;4.97;84.04;101187.22;4996523;56;1138737;-74
2023/03/17 08:38:22;;;;;;;27.23;12.77;;;;;;;5.08;82.18;101196.77;4970556;57;1139224;-72
2023/03/17 08:43:28;;;;;;;31.70;11.27;;;;;;;5.14;83.34;101201.75;4950747;57;1139104;-70
2023/03/17 08:48:36;;;;;;;24.00;11.23;;;;;;;5.26;83.89;101201.20;4992242;56;1138815;-73
2023/03/17 08:53:42;;;;;;;23.40;11.50;;;;;;;5.41;82.94;101206.67;5052349;56;1138812;-68
2023/03/17 08:58:49;;;;;;;28.10;12.93;;;;;;;5.55;83.43;101213.45;5006267;56;1138952;-65
2023/03/17 09:03:55;;;;;;;35.60;12.73;;;;;;;5.60;80.80;101182.63;4946689;57;1138726;-69
2023/03/17 09:09:02;;;;;;;28.45;10.60;;;;;;;5.69;80.11;101173.00;4946995;56;1138825;-71
2023/03/17 09:14:08;;;;;;;22.85;11.33;;;;;;;5.76;77.72;101170.48;4966157;56;1139086;-68
2023/03/17 09:19:15;;;;;;;23.73;9.53;;;;;;;5.81;79.67;101172.41;4989895;57;1138954;-68
2023/03/17 09:24:21;;;;;;;35.10;14.27;;;;;;;5.91;78.43;101167.62;5008695;57;1136883;-72
2023/03/17 09:29:27;;;;;;;40.92;14.58;;;;;;;5.96;78.78;101159.05;5027825;57;1138797;-73
2023/03/17 09:34:34;;;;;;;23.90;11.67;;;;;;;6.08;76.28;101165.50;5070130;56;1138804;-73
2023/03/17 09:39:40;;;;;;;23.17;10.47;;;;;;;6.15;80.29;101159.01;5095807;56;1138871;-67
2023/03/17 09:44:54;;;;;;;28.20;11.00;;;;;;;6.21;77.74;101154.32;5048064;56;1139241;-71
2023/03/17 09:50:04;;;;;;;19.30;8.90;;;;;;;6.31;78.99;101152.08;5079370;56;1139011;-72
2023/03/17 09:55:14;;;;;;;15.63;6.45;;;;;;;6.38;73.77;101140.35;5068176;56;1136708;-67
2023/03/17 10:00:26;;;;;;;18.85;7.65;;;;;;;6.42;69.19;101132.67;5027868;57;1136907;-73
2023/03/17 10:05:34;;;;;;;21.33;10.33;;;;;;;6.46;73.17;101126.34;5008373;57;1136770;-73
2023/03/17 10:11:16;;;;;;;21.50;9.80;;;;;;;6.55;75.27;101111.44;5004253;57;1139035;-72
2023/03/17 10:16:41;;;;;;;23.63;8.60;;;;;;;6.64;75.44;101101.76;5009680;57;1136855;-67
2023/03/17 10:21:59;;;;;;;17.02;8.35;;;;;;;6.95;72.82;101113.30;5028158;57;1136718;-72
2023/03/17 10:27:09;;;;;;;21.33;9.00;;;;;;;7.34;70.43;101120.80;5008801;57;1136821;-76
2023/03/17 10:32:15;;;;;;;16.42;9.10;;;;;;;7.61;68.31;101119.31;5029964;56;1136802;-73
2023/03/17 10:37:25;;;;;;;28.83;8.30;;;;;;;7.81;67.17;101097.11;5117130;56;1136936;-72
2023/03/17 10:42:34;;;;;;;18.47;8.77;;;;;;;7.84;61.78;101075.87;5067616;56;1136957;-74
2023/03/17 10:47:47;;;;;;;22.83;7.90;;;;;;;7.81;61.53;101066.82;5040910;56;1136846;-70
2023/03/17 10:53:08;;;;;;;18.87;7.77;;;;;;;7.88;64.19;101051.53;5043395;56;1136898;-71
2023/03/17 10:58:30;;;;;;;19.87;9.07;;;;;;;8.22;62.52;101056.53;5028675;57;1137022;-73
2023/03/17 11:03:39;;;;;;;17.87;8.80;;;;;;;8.40;62.90;101063.34;5008610;57;1136821;-70
2023/03/17 11:08:53;;;;;;;25.23;9.73;;;;;;;8.59;63.42;101022.70;5009071;57;1136763;-68
2023/03/17 11:14:14;;;;;;;29.75;10.10;;;;;;;8.71;58.24;101000.84;5009312;57;1136921;-74
2023/03/17 11:19:22;;;;;;;18.30;9.07;;;;;;;8.84;57.34;101025.54;5028270;57;1138879;-70
2023/03/17 11:24:40;;;;;;;16.97;7.20;;;;;;;8.84;57.34;101025.54;5008821;57;1136898;-71
2023/03/17 11:30:04;;;;;;;18.97;9.07;;;;;;;8.97;55.24;101034.38;5008871;57;1136821;-68
2023/03/17 11:35:45;;;;;;;19.33;8.97;;;;;;;9.17;54.18;101033.09;5080851;56;1136668;-69
2023/03/17 11:41:04;;;;;;;21.20;10.20;;;;;;;9.35;58.63;100996.29;5054049;56;1137400;-70
2023/03/17 11:46:18;;;;;;;18.90;8.03;;;;;;;9.61;56.77;100961.59;5038783;56;1139008;-69
2023/03/17 11:51:46;;;;;;;22.80;10.58;;;;;;;9.71;54.13;100941.53;5008446;57;1138926;-66
2023/03/17 11:57:03;;;;;;;61.58;21.93;;;;;;;9.87;52.43;100949.27;5008406;57;1140909;-75
2023/03/17 12:02:22;;;;;;;25.97;10.40;;;;;;;9.94;50.94;100953.64;5008224;57;1141130;-71
2023/03/17 12:07:36;;;;;;;26.67;12.17;;;;;;;10.03;54.97;100941.99;5027339;57;1140956;-73
2023/03/17 12:12:47;;;;;;;21.80;10.10;;;;;;;10.37;53.18;100928.64;5063293;56;1143119;-72
2023/03/17 12:18:06;;;;;;;24.20;9.33;;;;;;;10.61;53.42;100910.66;5095694;56;1142983;-75
2023/03/17 12:23:31;;;;;;;23.77;8.65;;;;;;;10.68;47.63;100917.22;5105900;56;1140882;-72
2023/03/17 12:29:00;;;;;;;21.23;9.77;;;;;;;10.53;44.30;100911.22;5146818;56;1141115;-73
2023/03/17 12:34:28;;;;;;;20.27;9.17;;;;;;;10.54;48.15;100899.69;5125453;56;1205794;-79
2023/03/17 12:39:36;;;;;;;26.43;11.40;;;;;;;10.68;48.52;100896.05;5126598;56;1140871;-83
2023/03/17 12:45:04;;;;;;;20.57;8.83;;;;;;;10.71;45.39;100898.45;5078783;56;1143126;-73
2023/03/17 12:50:31;;;;;;;20.33;10.57;;;;;;;10.64;46.33;100902.03;5039669;56;1140986;-76
2023/03/17 12:55:38;;;;;;;23.93;10.00;;;;;;;10.68;48.09;100915.42;5006187;56;1142912;-79
2023/03/17 13:01:08;;;;;;;25.17;12.10;;;;;;;10.81;48.61;100916.22;5061515;57;1143122;-80
2023/03/17 13:06:17;;;;;;;21.23;9.33;;;;;;;10.96;48.31;100912.94;5041802;56;1142999;-79
2023/03/17 13:11:39;;;;;;;26.30;11.08;;;;;;;11.09;45.66;100920.34;5086686;55;1141204;-79
2023/03/17 13:16:46;;;;;;;40.50;22.87;;;;;;;11.10;47.20;100908.80;5227073;55;1143036;-77
2023/03/17 13:22:06;;;;;;;29.80;11.47;;;;;;;11.08;45.95;100913.36;5077793;55;1142884;-80
2023/03/17 13:27:33;;;;;;;21.80;8.73;;;;;;;11.04;46.77;100901.77;5094277;55;1142921;-75
2023/03/17 13:32:39;;;;;;;27.50;10.47;;;;;;;10.89;45.47;100901.09;5119103;56;1140947;-82
2023/03/17 13:38:01;;;;;;;19.23;8.37;;;;;;;10.72;45.19;100902.31;5041492;57;1142994;-76
2023/03/17 13:43:25;;;;;;;19.50;7.67;;;;;;;10.71;45.99;100894.00;5049447;56;1141146;-76
2023/03/17 13:48:36;;;;;;;30.60;11.07;;;;;;;10.74;46.90;100895.11;5087560;56;1140906;-80
2023/03/17 13:54:21;;;;;;;25.23;10.37;;;;;;;10.87;47.03;100872.58;5061687;56;1142960;-77
2023/03/17 13:59:49;;;;;;;31.13;13.43;;;;;;;10.92;46.84;100875.26;5042382;56;1143079;-80
2023/03/17 14:05:08;;;;;;;37.17;11.60;;;;;;;11.01;47.59;100875.05;4974064;56;1143162;-81
2023/03/17 14:10:25;;;;;;;24.12;10.82;;;;;;;11.04;46.80;100856.30;5032983;55;1143002;-80
2023/03/17 14:15:45;;;;;;;25.73;10.60;;;;;;;11.00;46.77;100868.58;5072463;56;1143389;-78
2023/03/17 14:20:57;;;;;;;18.63;9.17;;;;;;;10.94;47.12;100864.56;5033387;57;1143093;-80
2023/03/17 14:26:06;;;;;;;26.33;13.80;;;;;;;10.88;46.56;100854.41;5046335;56;1140977;-80
2023/03/17 14:31:16;;;;;;;28.40;9.67;;;;;;;10.87;47.54;100850.08;5026647;56;1143137;-81
2023/03/17 14:36:23;;;;;;;14.38;8.45;;;;;;;10.87;47.95;100842.98;5031396;56;1140912;-81
2023/03/17 14:41:30;;;;;;;71.13;28.03;;;;;;;10.86;48.57;100853.68;5023029;56;1141053;-80
2023/03/17 14:46:39;;;;;;;44.20;18.10;;;;;;;10.85;48.94;100839.61;5019957;56;1143029;-78
2023/03/17 14:51:48;;;;;;;16.65;8.28;;;;;;;10.86;47.98;100837.80;5051931;56;1143130;-78
2023/03/17 14:57:03;;;;;;;57.67;23.47;;;;;;;10.79;46.16;100840.08;4955541;57;1140908;-80
2023/03/17 15:02:34;;;;;;;56.57;27.33;;;;;;;10.81;48.20;100837.32;4957279;57;1143195;-78
2023/03/17 15:07:43;;;;;;;32.83;10.27;;;;;;;10.81;49.47;100830.70;4962487;57;1143170;-80
2023/03/17 15:12:50;;;;;;;26.17;10.43;;;;;;;10.81;50.04;100834.20;5058421;56;1143014;-80
2023/03/17 15:18:00;;;;;;;27.93;12.03;;;;;;;10.85;50.33;100832.14;4960893;57;1143122;-81
2023/03/17 15:23:24;;;;;;;20.83;9.43;;;;;;;10.76;50.32;100828.39;4927585;57;1143180;-75
2023/03/17 15:28:32;;;;;;;15.10;7.47;;;;;;;10.58;49.59;100825.28;4942187;57;1141410;-75
2023/03/17 15:33:40;;;;;;;15.63;8.43;;;;;;;10.52;50.90;100831.52;4854472;58;1140902;-81
2023/03/17 15:38:46;;;;;;;56.53;25.30;;;;;;;10.39;51.20;100822.78;4875038;57;1140915;-77
2023/03/17 15:43:52;;;;;;;32.33;14.30;;;;;;;10.28;51.97;100825.33;4877647;57;1143122;-80
2023/03/17 15:48:58;;;;;;;18.40;10.37;;;;;;;10.19;53.03;100830.33;4887755;58;1142910;-79
2023/03/17 15:54:04;;;;;;;28.67;9.20;;;;;;;10.12;52.00;100834.31;4917875;58;1143078;-77
2023/03/17 15:59:11;;;;;;;23.65;9.68;;;;;;;10.08;53.71;100832.83;4888688;57;1141278;-76
2023/03/17 16:04:17;;;;;;;22.13;9.60;;;;;;;10.02;53.70;100831.11;4887314;58;1141036;-76
2023/03/17 16:09:23;;;;;;;25.83;12.03;;;;;;;9.97;54.79;100831.90;4874202;58;1140961;-77
2023/03/17 16:14:31;;;;;;;21.87;13.80;;;;;;;9.88;54.82;100821.04;4877322;58;1141261;-75
2023/03/17 16:19:37;;;;;;;19.65;9.45;;;;;;;9.81;55.66;100817.59;4939027;57;1141061;-75
2023/03/17 16:24:43;;;;;;;48.83;22.50;;;;;;;9.73;55.60;100819.94;4948286;58;1138846;-73
2023/03/17 16:29:49;;;;;;;18.73;9.77;;;;;;;9.64;55.63;100812.63;4947919;57;1140956;-79
2023/03/17 16:34:55;;;;;;;22.27;9.53;;;;;;;9.56;55.28;100814.49;4862893;58;1137082;-73
2023/03/17 16:40:07;;;;;;;27.40;10.93;;;;;;;9.47;55.61;100808.53;4869911;59;1137182;-74
2023/03/17 16:45:26;;;;;;;50.30;21.27;;;;;;;9.37;55.24;100812.26;4914808;57;1138907;-75
2023/03/17 16:50:34;;;;;;;167.63;67.90;;;;;;;9.30;55.13;100801.76;4937154;57;1138870;-74
2023/03/17 16:55:40;;;;;;;302.40;129.23;;;;;;;9.25;55.47;100801.69;5043311;56;1140922;-74
2023/03/17 17:00:48;;;;;;;184.90;94.07;;;;;;;9.18;55.65;100810.00;5031966;56;1143056;-77
2023/03/17 17:05:54;;;;;;;37.42;15.90;;;;;;;9.08;55.90;100798.39;4980964;56;1140920;-78
2023/03/17 17:11:00;;;;;;;28.25;12.63;;;;;;;9.04;56.03;100806.60;5012758;57;1139062;-72
2023/03/17 17:16:07;;;;;;;35.27;12.73;;;;;;;8.98;55.46;100812.30;5000283;57;1138851;-73
2023/03/17 17:21:13;;;;;;;54.45;20.48;;;;;;;8.93;55.92;100817.03;5065111;56;1139265;-75
2023/03/17 17:26:19;;;;;;;28.20;13.30;;;;;;;8.88;55.82;100818.64;5035090;56;1138775;-73
2023/03/17 17:31:26;;;;;;;59.27;19.10;;;;;;;8.75;54.82;100801.94;5085045;56;1138981;-72
2023/03/17 17:36:32;;;;;;;34.00;15.20;;;;;;;8.74;54.92;100816.91;5077657;56;1138955;-74
2023/03/17 17:41:38;;;;;;;28.90;12.13;;;;;;;8.69;55.53;100809.79;4940290;58;1138856;-74
2023/03/17 17:46:44;;;;;;;30.80;11.90;;;;;;;8.64;55.12;100802.64;5031160;56;1139029;-75
2023/03/17 17:51:50;;;;;;;43.10;17.23;;;;;;;8.59;55.24;100802.55;5019611;56;1139029;-77
2023/03/17 17:56:56;;;;;;;47.40;20.60;;;;;;;8.54;55.20;100805.98;5097892;56;1139027;-79
2023/03/17 18:02:02;;;;;;;46.10;20.73;;;;;;;8.50;55.42;100805.33;5154974;56;1138739;-81
2023/03/17 18:07:08;;;;;;;64.63;30.83;;;;;;;8.43;55.45;100807.97;4953596;57;1138797;-82
2023/03/17 18:12:14;;;;;;;24.80;12.80;;;;;;;8.38;55.67;100800.84;4928791;57;1138992;-75
2023/03/17 18:17:23;;;;;;;30.12;13.43;;;;;;;8.28;55.28;100791.31;5107142;56;1138949;-80
2023/03/17 18:22:29;;;;;;;29.42;16.10;;;;;;;8.25;56.17;100792.82;4954576;57;1138887;-79
2023/03/17 18:27:36;;;;;;;39.60;18.87;;;;;;;8.20;56.49;100790.97;5073190;56;1138830;-78
2023/03/17 18:32:44;;;;;;;41.30;21.90;;;;;;;8.16;56.87;100793.41;4977444;58;1139008;-78
2023/03/17 18:37:50;;;;;;;33.77;14.57;;;;;;;8.06;57.46;100785.26;5038575;56;1139006;-79
2023/03/17 18:42:56;;;;;;;28.43;13.93;;;;;;;7.96;57.96;100781.48;4986508;56;1138850;-78
2023/03/17 18:48:02;;;;;;;28.55;13.00;;;;;;;7.88;57.81;100784.23;5011058;57;1138910;-77
2023/03/17 18:53:11;;;;;;;31.17;14.73;;;;;;;7.79;58.29;100778.23;5059112;57;1138845;-85
2023/03/17 18:58:16;;;;;;;34.53;15.77;;;;;;;7.69;58.57;100777.94;5034656;56;1148547;-83
2023/03/17 19:03:23;;;;;;;37.53;15.77;;;;;;;7.61;59.20;100779.73;4958101;58;1138921;-81
2023/03/17 19:08:28;;;;;;;37.23;15.53;;;;;;;7.55;59.64;100776.16;4977447;58;1138949;-82
2023/03/17 19:13:35;;;;;;;27.40;14.40;;;;;;;7.49;59.73;100771.72;4916389;58;1138973;-79
2023/03/17 19:18:41;;;;;;;38.83;17.83;;;;;;;7.43;59.51;100780.00;5080005;56;1139058;-79
2023/03/17 19:23:47;;;;;;;34.50;15.03;;;;;;;7.38;60.30;100769.28;5083751;56;1138856;-80
2023/03/17 19:28:55;;;;;;;30.83;15.37;;;;;;;7.34;61.10;100768.23;5087725;56;1138931;-77
2023/03/17 19:34:00;;;;;;;38.83;15.17;;;;;;;7.31;62.12;100765.81;4927967;57;1142926;-80
2023/03/17 19:39:09;;;;;;;35.97;15.60;;;;;;;7.24;62.87;100759.20;5012330;57;1138801;-75
2023/03/17 19:44:15;;;;;;;28.87;14.13;;;;;;;7.17;63.74;100749.54;5042455;56;1138762;-79
2023/03/17 19:49:21;;;;;;;34.37;15.30;;;;;;;7.10;64.52;100753.45;5005727;56;1138970;-80
2023/03/17 19:54:27;;;;;;;33.50;17.25;;;;;;;7.02;65.18;100753.93;5001434;57;1138946;-76
2023/03/17 19:59:33;;;;;;;40.44;16.42;;;;;;;6.95;65.55;100746.01;4987130;56;1139076;-72
2023/03/17 20:04:39;;;;;;;59.77;32.13;;;;;;;6.86;66.26;100748.34;4969625;56;1139004;-81
2023/03/17 20:09:46;;;;;;;37.60;16.57;;;;;;;6.82;66.46;100742.88;4967505;57;1138847;-78
2023/03/17 20:14:53;;;;;;;32.87;15.27;;;;;;;6.76;66.85;100741.91;5055166;56;1138855;-79
2023/03/17 20:19:59;;;;;;;33.40;15.57;;;;;;;6.68;67.19;100734.02;5033217;56;1138755;-78
2023/03/17 20:25:09;;;;;;;35.30;15.27;;;;;;;6.60;67.33;100734.91;5052607;56;1138922;-79
2023/03/17 20:30:14;;;;;;;49.67;18.97;;;;;;;6.56;67.63;100731.26;4980296;56;1138851;-78
2023/03/17 20:35:20;;;;;;;36.27;14.40;;;;;;;6.49;67.90;100725.50;4951404;57;1138963;-81
2023/03/17 20:40:27;;;;;;;36.17;15.97;;;;;;;6.43;67.95;100730.23;5010060;57;1138818;-80
2023/03/17 20:45:32;;;;;;;56.40;25.70;;;;;;;6.37;68.16;100728.83;5067509;56;1138813;-78
2023/03/17 20:50:40;;;;;;;39.27;19.57;;;;;;;6.33;68.41;100738.66;5022769;57;1138864;-77
2023/03/17 20:55:46;;;;;;;43.00;18.30;;;;;;;6.28;68.60;100734.58;5042690;57;1138844;-77
2023/03/17 21:00:52;;;;;;;34.30;17.37;;;;;;;6.21;68.64;100722.28;5022734;57;1138825;-78
2023/03/17 21:05:59;;;;;;;33.00;15.18;;;;;;;6.22;68.85;100717.88;5022911;56;1139002;-78
2023/03/17 21:11:06;;;;;;;40.57;19.10;;;;;;;6.17;68.96;100714.65;5042418;56;1138732;-73
2023/03/17 21:16:25;;;;;;;43.60;18.17;;;;;;;6.12;69.22;100717.52;5018407;56;1138747;-80
2023/03/17 21:21:31;;;;;;;37.13;15.20;;;;;;;6.06;69.40;100716.58;5023460;56;1138811;-80
2023/03/17 21:26:37;;;;;;;34.73;14.90;;;;;;;6.05;69.53;100720.59;5049987;56;1138809;-77
2023/03/17 21:31:43;;;;;;;53.43;21.67;;;;;;;5.98;69.63;100716.14;5042076;56;1138808;-78
2023/03/17 21:36:49;;;;;;;34.47;14.77;;;;;;;5.94;69.90;100705.45;5046149;56;1139099;-76
2023/03/17 21:41:55;;;;;;;37.33;16.20;;;;;;;5.90;69.98;100703.91;5022659;57;1139247;-79
2023/03/17 21:47:01;;;;;;;40.83;17.90;;;;;;;5.84;69.90;100695.02;5042628;56;1138972;-79
2023/03/17 21:52:08;;;;;;;32.57;14.30;;;;;;;5.79;70.29;100693.14;5022764;57;1139057;-76
2023/03/17 21:57:15;;;;;;;30.97;13.77;;;;;;;5.79;70.29;100693.14;5022860;57;1138921;-83
2023/03/17 22:02:21;;;;;;;28.83;12.60;;;;;;;5.75;70.11;100682.42;5125956;56;1139934;-79
2023/03/17 22:07:28;;;;;;;25.10;11.95;;;;;;;5.68;70.19;100679.73;5095857;56;1138874;-79
2023/03/17 22:12:36;;;;;;;26.93;11.35;;;;;;;5.63;70.21;100682.17;5088587;56;1138978;-86
2023/03/17 22:17:42;;;;;;;35.53;13.90;;;;;;;5.59;70.12;100687.66;5126730;56;1138890;-77
2023/03/17 22:22:48;;;;;;;32.07;13.43;;;;;;;5.54;70.32;100683.96;5107104;56;1139093;-75
2023/03/17 22:27:54;;;;;;;26.63;12.03;;;;;;;5.49;70.48;100682.07;5107056;56;1138824;-86
2023/03/17 22:33:00;;;;;;;36.15;13.43;;;;;;;5.47;70.41;100689.17;5106967;56;1138891;-83
2023/03/17 22:38:07;;;;;;;29.53;13.10;;;;;;;5.43;70.59;100681.55;5127273;56;1139085;-84
2023/03/17 22:43:13;;;;;;;32.03;11.60;;;;;;;5.38;70.67;100678.31;5043766;56;1138991;-80
2023/03/17 22:48:19;;;;;;;32.00;13.80;;;;;;;5.33;70.86;100675.95;4951933;57;1139010;-82
2023/03/17 22:53:25;;;;;;;33.70;12.00;;;;;;;5.32;70.83;100679.50;4971144;57;1139055;-83
2023/03/17 22:58:31;;;;;;;23.60;11.48;;;;;;;5.29;70.85;100671.80;5012975;56;1138865;-78
2023/03/17 23:03:37;;;;;;;32.95;12.75;;;;;;;5.24;71.11;100677.27;4992220;56;1138987;-79